LiveATC.Net - Listen to live air traffic control over the Internet!


ICAO: EHBK  IATA: MST   Airport: Maastricht Aachen Airport
City: Beek
Country: Netherlands   Continent: Europe
EHBK METAR Weather: EHBK 242155Z AUTO 06003KT 9999 NSC 17/13 Q1019
EHBK ADS-B Flight Tracking  (ADSBExchange)
EHBK Flight Activity (FlightAware)

EHBK Gnd/Twr/App
Feed Status: UP   Listeners: 0
Listen in your browser - HTML5 player (in browser, HTML5)
Click here to listen with your own player (launches your MP3 player)
Archive Access: EHBK Gnd/Twr/App
FacilityFrequency
Beek Approach120.205
Beek Approach123.980
Beek Ground121.830
Beek Tower119.480
Beek Tower119.705

NOTICE

Unauthorized use prohibited. See LiveATC.net Terms of Service


Airport/ARTCC Code
Frequency Search
(e.g., 124.400, 128.75)
Site-wide search
 


Browse Feeds
Top 50 Feeds
HF Oceanic Feeds
Coverage Map
Bad Weather Areas

LiveATC FAQ

Increase Coverage

Contact LiveATC.net
Press Inquiries

LiveATC on iPhone
LiveATC on Android

LiveATC Mobile
(Mobile browser)

ATC Audio Archives
Interesting Recordings

LiveATC Forums


Home Page
About LiveATC.net


Terms of Use
Privacy Policy

AIRMETs/SIGMETs

FAA Airport Status
NAS Status
Arrival Demand


Server Software By:
Icecast.org
Liquidsoap